Portada
METAR-TAF:

METAR-TAF

Aeroports :

Aeroport Internacional Maiquetía Simón Bolívar

Caracas, Veneçuela

latitud: 10-36N, longitud: 066-59W, altitud: 43 m

Observació

L'informe es va fer fa 25 minuts, a les 07:02 UTC
Vent 2 kt del Est
Temperatura 24°C
Pressió 1013 hPa

METAR: SVMI 270702Z AUTO 10002KT NCD 24/// Q1013

Hora: 03:27 (07:27 UTC)

Pronòstic

L'informe es va fer fa 3 hores i 27 minuts, a les 04:00 UTC
Pronòstic vàlid del 27 a les 06 UTC al 28 a les 06 UTC
Vent 1 kt del Est
Visibilitat 10 km o més
Núvols disperses a una alçada de 1600 ft
Evolucionant progressivament
l' 27 a les 06 UTC al 27 a les 10 UTC
Vent kt del Nord
Visibilitat 10 km o més
sense núvols per sota de 1500 mi sense presència de cumulonimbus.

TAF: SVMI 270400Z 2706/2806 09001KT 9999 SCT016 TX30/18Z TN22/09Z BECMG 2706/2710 00000KT CAVOK

Observacions i pronòstics meteorològics de més de 4000 aeroports (METAR i TAF).

Les estacions disponibles són els punts grocs i vermells al mapa.

Posi el ratolí al punt desitjat per veure el nom de l'estació.

Feu clic per veure les observacions i els pronòstics meteorològics.

Per canviar el mapa: feu clic els botons verds amb una creu de color negre per apropar; al botó verd amb un guió per allunyar la imatge; o en les fletxes verdes per a mapes adjacents.


METAR-TAF: